Time;durP1;ratioP1;P1;durP2;ratioP2;P2;SDS_P1;SDS_P2;PMS_P1;PMS_P2;Temp;Humidity;BMP_temperature;BMP_pressure;BME280_temperature;BME280_humidity;BME280_pressure;Samples;Min_cycle;Max_cycle;Signal;HPM_P1;HPM_P2
2022/02/06 00:01:36;;;;;;;2.60;2.40;;;;;;;0.47;100.00;97441.34;4960397;28;20241;-49
2022/02/06 00:04:05;;;;;;;2.33;2.03;;;;;;;0.63;100.00;97442.84;4947917;28;20359;-52
2022/02/06 00:06:35;;;;;;;1.87;1.77;;;;;;;0.50;100.00;97443.72;4931099;28;20210;-48
2022/02/06 00:09:03;;;;;;;2.30;2.20;;;;;;;0.56;100.00;97440.66;4970885;28;20290;-51
2022/02/06 00:11:32;;;;;;;2.77;2.20;;;;;;;0.47;100.00;97438.75;4956140;28;20303;-49
2022/02/06 00:14:01;;;;;;;2.30;2.03;;;;;;;0.53;100.00;97432.25;4967517;28;20951;-51
2022/02/06 00:16:29;;;;;;;2.20;2.10;;;;;;;0.61;100.00;97434.31;4969842;28;20264;-49
2022/02/06 00:18:57;;;;;;;2.57;2.37;;;;;;;0.50;100.00;97430.69;4931162;28;20291;-53
2022/02/06 00:21:25;;;;;;;3.00;2.80;;;;;;;0.52;100.00;97436.63;4954811;28;21293;-53
2022/02/06 00:23:55;;;;;;;2.30;2.07;;;;;;;0.61;100.00;97436.91;4969689;28;20623;-54
2022/02/06 00:26:32;;;;;;;2.07;1.97;;;;;;;0.54;100.00;97436.53;4962706;28;20268;-51
2022/02/06 00:29:15;;;;;;;2.60;2.40;;;;;;;0.46;100.00;97441.50;4969864;28;20295;-51
2022/02/06 00:31:58;;;;;;;2.33;1.93;;;;;;;0.30;100.00;97436.56;4971349;28;20230;-53
2022/02/06 00:40:03;;;;;;;2.10;2.00;;;;;;;0.24;100.00;97428.25;4953122;28;20263;-51
2022/02/06 00:42:32;;;;;;;2.70;2.30;;;;;;;0.24;100.00;97423.06;4952106;28;20725;-48
2022/02/06 00:45:01;;;;;;;4.27;2.20;;;;;;;0.06;100.00;97419.19;4969614;28;20206;-54
2022/02/06 00:47:29;;;;;;;2.80;2.60;;;;;;;0.08;100.00;97425.09;4964824;28;20505;-49
2022/02/06 00:49:59;;;;;;;3.13;2.83;;;;;;;-0.18;100.00;97415.63;4928558;28;20218;-48
2022/02/06 00:52:33;;;;;;;2.77;2.57;;;;;;;-0.26;100.00;97417.13;4969035;28;20233;-47
2022/02/06 00:55:01;;;;;;;3.77;3.47;;;;;;;-0.41;100.00;97404.28;4944104;28;20255;-52
2022/02/06 00:57:29;;;;;;;3.33;3.13;;;;;;;-0.39;100.00;97406.75;4961857;28;20206;-51
2022/02/06 00:59:57;;;;;;;4.80;3.10;;;;;;;-0.46;100.00;97396.78;4970623;28;20697;-48
2022/02/06 01:02:27;;;;;;;3.57;3.10;;;;;;;-0.55;100.00;97397.44;4963341;28;20392;-48
2022/02/06 01:04:55;;;;;;;3.93;3.63;;;;;;;-0.67;100.00;97388.72;4934012;28;20918;-48
2022/02/06 01:07:23;;;;;;;3.10;2.90;;;;;;;-0.54;100.00;97393.88;4968891;28;20209;-50
2022/02/06 01:09:51;;;;;;;3.00;2.80;;;;;;;-0.59;100.00;97396.00;4963588;28;20264;-49
2022/02/06 01:12:24;;;;;;;3.80;3.50;;;;;;;-0.53;100.00;97385.16;4955874;28;20258;-47
2022/02/06 01:15:03;;;;;;;3.53;3.00;;;;;;;-0.37;100.00;97381.47;4957085;28;20213;-52
2022/02/06 01:17:37;;;;;;;3.23;2.93;;;;;;;-0.41;100.00;97386.03;4975364;28;20267;-48
2022/02/06 01:20:14;;;;;;;2.50;2.40;;;;;;;-0.48;100.00;97382.22;4929626;28;21080;-51
2022/02/06 01:22:50;;;;;;;4.83;2.60;;;;;;;-0.42;100.00;97383.53;4969034;28;20638;-52
2022/02/06 01:25:25;;;;;;;3.10;2.80;;;;;;;-0.56;100.00;97380.16;4956730;28;20214;-46
2022/02/06 01:27:58;;;;;;;3.23;2.73;;;;;;;-0.44;100.00;97378.47;4951659;28;20544;-49
2022/02/06 01:30:33;;;;;;;3.13;2.80;;;;;;;-0.45;100.00;97372.41;4968191;28;20214;-52
2022/02/06 01:33:09;;;;;;;2.77;2.63;;;;;;;-0.53;100.00;97366.91;4969606;28;20205;-49
2022/02/06 01:35:43;;;;;;;2.87;2.67;;;;;;;-0.60;100.00;97358.72;4938537;28;20209;-50
2022/02/06 01:38:18;;;;;;;3.70;2.70;;;;;;;-0.54;100.00;97367.88;4966674;28;20213;-53
2022/02/06 01:40:59;;;;;;;3.20;2.53;;;;;;;-0.54;100.00;97356.63;4954861;28;20265;-50
2022/02/06 01:43:33;;;;;;;2.60;2.50;;;;;;;-0.37;100.00;97361.44;4973149;28;20525;-50
2022/02/06 01:46:23;;;;;;;3.47;3.17;;;;;;;-0.24;100.00;97344.91;4956548;28;20288;-51
2022/02/06 02:00:30;;;;;;;3.07;2.23;;;;;;;-0.03;100.00;97330.34;4946068;28;20921;-50
2022/02/06 02:03:18;;;;;;;3.43;2.03;;;;;;;-0.02;100.00;97320.72;4924898;28;20263;-50
2022/02/06 02:06:13;;;;;;;2.83;2.13;;;;;;;0.07;100.00;97319.22;4927518;28;20977;-51
2022/02/06 02:09:13;;;;;;;4.73;2.37;;;;;;;0.14;100.00;97312.59;4893419;28;20227;-51
2022/02/06 02:11:59;;;;;;;2.73;1.93;;;;;;;0.11;100.00;97312.84;4930045;28;20779;-49
2022/02/06 02:15:08;;;;;;;2.97;2.43;;;;;;;0.21;100.00;97312.97;4916195;28;20222;-50
2022/02/06 02:20:44;;;;;;;3.20;2.50;;;;;;;0.34;100.00;97302.47;4902630;28;20407;-51
2022/02/06 02:23:34;;;;;;;2.30;2.20;;;;;;;0.36;100.00;97295.34;4886062;28;20278;-51
2022/02/06 02:43:31;;;;;;;2.37;2.17;;;;;;;0.22;100.00;97265.97;4896393;28;20370;-48
2022/02/06 02:46:07;;;;;;;2.27;2.13;;;;;;;0.19;100.00;97266.22;4961468;28;20221;-47
2022/02/06 02:48:36;;;;;;;3.80;2.30;;;;;;;0.15;100.00;97262.16;4947901;28;20210;-49
2022/02/06 02:51:07;;;;;;;2.40;2.27;;;;;;;0.10;100.00;97246.88;4965727;28;20241;-51
2022/02/06 02:53:38;;;;;;;1.93;1.67;;;;;;;0.02;100.00;97249.25;4926982;28;20723;-48
2022/02/06 02:56:18;;;;;;;2.23;2.13;;;;;;;0.11;100.00;97232.91;4966173;28;20305;-49
2022/02/06 02:58:55;;;;;;;3.77;2.50;;;;;;;-0.07;100.00;97214.28;4954776;28;20222;-50
2022/02/06 03:01:30;;;;;;;4.53;2.33;;;;;;;0.08;100.00;97219.28;4950867;28;20242;-52
2022/02/06 03:03:58;;;;;;;2.57;2.30;;;;;;;0.01;100.00;97216.31;4948266;28;20771;-47
2022/02/06 03:06:26;;;;;;;4.33;2.17;;;;;;;0.07;100.00;97221.06;4970632;28;20236;-51
2022/02/06 03:08:57;;;;;;;3.77;2.43;;;;;;;-0.04;100.00;97215.81;4924732;28;20214;-48
2022/02/06 03:11:25;;;;;;;3.73;2.20;;;;;;;-0.01;100.00;97211.22;4980778;28;20477;-49
2022/02/06 03:14:00;;;;;;;2.50;2.30;;;;;;;0.07;100.00;97205.44;4981229;28;20206;-49
2022/02/06 03:16:32;;;;;;;2.17;2.07;;;;;;;0.07;100.00;97205.44;4939332;28;20730;-51
2022/02/06 03:19:06;;;;;;;3.30;1.80;;;;;;;0.04;100.00;97204.81;4951561;28;20244;-47
2022/02/06 03:21:36;;;;;;;3.53;2.37;;;;;;;0.03;100.00;97190.13;4968579;28;20243;-48
2022/02/06 03:24:19;;;;;;;2.67;2.20;;;;;;;0.04;100.00;97179.63;4937039;28;20998;-48
2022/02/06 03:26:48;;;;;;;2.20;2.00;;;;;;;0.16;100.00;97193.44;4968696;28;20205;-48
2022/02/06 03:29:16;;;;;;;2.57;2.37;;;;;;;0.25;100.00;97191.91;4969239;28;20214;-50
2022/02/06 03:31:45;;;;;;;3.53;2.30;;;;;;;0.24;100.00;97195.47;4953901;28;20228;-50
2022/02/06 03:34:13;;;;;;;2.87;2.67;;;;;;;0.21;100.00;97196.56;4947965;28;20431;-50
2022/02/06 03:36:41;;;;;;;2.77;2.00;;;;;;;0.32;100.00;97184.47;4969066;28;20221;-48
2022/02/06 03:39:12;;;;;;;3.27;2.30;;;;;;;0.25;100.00;97197.13;4968269;28;20214;-47
2022/02/06 03:41:53;;;;;;;2.97;2.40;;;;;;;0.30;100.00;97202.00;4918084;28;20237;-50
2022/02/06 03:44:28;;;;;;;2.37;2.17;;;;;;;0.25;100.00;97184.09;4966257;28;20753;-49
2022/02/06 03:47:05;;;;;;;5.03;1.97;;;;;;;0.33;100.00;97178.31;4948121;28;20217;-47
2022/02/06 03:49:45;;;;;;;2.10;2.00;;;;;;;0.33;100.00;97168.69;4949927;28;20205;-51
2022/02/06 03:52:13;;;;;;;2.07;1.97;;;;;;;0.23;100.00;97167.75;4964271;28;20237;-51
2022/02/06 03:54:42;;;;;;;2.10;2.00;;;;;;;0.18;100.00;97167.28;4969178;28;20206;-49
2022/02/06 03:57:10;;;;;;;2.07;1.80;;;;;;;0.24;100.00;97161.59;4919169;28;20222;-46
2022/02/06 03:59:38;;;;;;;2.60;2.47;;;;;;;0.24;100.00;97167.66;4970403;28;20202;-49
2022/02/06 04:02:06;;;;;;;3.63;3.40;;;;;;;0.29;100.00;97162.06;4947306;28;20256;-45
2022/02/06 04:04:34;;;;;;;2.63;2.50;;;;;;;0.35;100.00;97160.75;4969740;28;20460;-49
2022/02/06 04:07:06;;;;;;;2.03;1.90;;;;;;;0.20;100.00;97155.81;4949770;28;20575;-45
2022/02/06 04:09:40;;;;;;;2.07;1.93;;;;;;;0.25;100.00;97155.44;4968858;28;20221;-51
2022/02/06 04:12:11;;;;;;;3.37;2.60;;;;;;;0.25;100.00;97166.69;4919779;28;20237;-46
2022/02/06 04:14:53;;;;;;;2.40;2.00;;;;;;;0.33;100.00;97162.66;4968978;28;20201;-52
2022/02/06 04:17:21;;;;;;;1.87;1.77;;;;;;;0.21;100.00;97157.47;4946251;28;20239;-49
2022/02/06 04:19:51;;;;;;;3.33;1.83;;;;;;;0.17;100.00;97156.03;4968534;28;20259;-49
2022/02/06 04:22:19;;;;;;;10.00;2.90;;;;;;;0.18;100.00;97149.84;4948424;28;20426;-49
2022/02/06 04:24:48;;;;;;;3.80;2.53;;;;;;;0.34;100.00;97141.66;4968602;28;20216;-48
2022/02/06 04:27:18;;;;;;;2.60;2.20;;;;;;;0.27;100.00;97143.09;4916830;28;23155;-51
2022/02/06 04:29:48;;;;;;;1.77;1.67;;;;;;;0.23;100.00;97132.13;4964053;28;20512;-51
2022/02/06 04:32:17;;;;;;;1.87;1.63;;;;;;;0.31;100.00;97131.50;4943245;28;21581;-51
2022/02/06 04:34:45;;;;;;;2.30;2.13;;;;;;;0.37;100.00;97136.22;4970808;28;20209;-51
2022/02/06 04:37:19;;;;;;;3.43;1.87;;;;;;;0.38;100.00;97114.44;4941133;28;20205;-48
2022/02/06 04:40:05;;;;;;;2.67;1.90;;;;;;;0.41;100.00;97123.78;4967871;28;20215;-54
2022/02/06 04:42:59;;;;;;;1.97;1.83;;;;;;;0.33;100.00;97118.34;4928568;28;20960;-52
2022/02/06 04:48:52;;;;;;;3.97;2.17;;;;;;;0.38;100.00;97114.44;4922856;28;20224;-51
2022/02/06 04:51:56;;;;;;;3.30;2.13;;;;;;;0.30;100.00;97106.38;4924866;28;21956;-50
2022/02/06 04:54:52;;;;;;;4.40;2.00;;;;;;;0.31;100.00;97102.00;4945044;28;20206;-51
2022/02/06 05:11:37;;;;;;;4.10;2.10;;;;;;;0.12;100.00;97101.69;4941337;28;20500;-52
2022/02/06 05:14:36;;;;;;;2.23;2.03;;;;;;;0.03;100.00;97096.34;4898958;28;20214;-48
2022/02/06 05:22:56;;;;;;;2.30;1.60;;;;;;;0.20;100.00;97100.25;4922714;28;20230;-50
2022/02/06 05:28:31;;;;;;;2.23;2.13;;;;;;;0.26;100.00;97091.94;4966368;28;20288;-51
2022/02/06 05:31:04;;;;;;;3.00;1.80;;;;;;;0.22;100.00;97080.94;4925996;28;20230;-51
2022/02/06 05:33:35;;;;;;;2.23;2.00;;;;;;;0.26;100.00;97069.31;4949718;28;20213;-49
2022/02/06 05:36:03;;;;;;;2.63;1.97;;;;;;;0.17;100.00;97075.25;4958152;28;20217;-53
2022/02/06 05:38:32;;;;;;;1.80;1.70;;;;;;;0.12;100.00;97053.94;4946290;28;20224;-51
2022/02/06 05:41:00;;;;;;;2.20;2.03;;;;;;;0.34;100.00;97065.28;4963661;28;20222;-52
2022/02/06 05:43:28;;;;;;;2.23;2.10;;;;;;;0.33;100.00;97068.81;4965049;28;20236;-48
2022/02/06 05:45:56;;;;;;;1.73;1.60;;;;;;;0.38;100.00;97066.69;4928320;28;21057;-52
2022/02/06 05:48:24;;;;;;;2.07;1.83;;;;;;;0.33;100.00;97066.22;4965002;28;20209;-48
2022/02/06 05:50:53;;;;;;;3.97;2.30;;;;;;;0.31;100.00;97061.13;4962918;28;21283;-49
2022/02/06 05:53:22;;;;;;;1.87;1.77;;;;;;;0.40;100.00;97055.19;4903682;28;20798;-51
2022/02/06 05:55:50;;;;;;;1.63;1.53;;;;;;;0.31;100.00;97049.88;4966747;28;20210;-50
2022/02/06 05:58:18;;;;;;;2.10;1.67;;;;;;;0.37;100.00;97046.78;4970584;28;20198;-49
2022/02/06 06:00:46;;;;;;;1.97;1.87;;;;;;;0.37;100.00;97033.75;4967502;28;20234;-50
2022/02/06 06:03:14;;;;;;;2.03;1.93;;;;;;;0.29;100.00;97036.97;4913731;28;20237;-49
2022/02/06 06:05:42;;;;;;;2.20;1.50;;;;;;;0.36;100.00;97029.47;4971327;28;20205;-49
2022/02/06 06:08:12;;;;;;;1.97;1.87;;;;;;;0.35;100.00;97036.47;4924567;28;20235;-51
2022/02/06 06:10:40;;;;;;;3.47;1.87;;;;;;;0.36;100.00;97026.88;4916879;28;20487;-48
2022/02/06 06:13:09;;;;;;;2.30;2.20;;;;;;;0.45;100.00;97020.09;4968461;28;20311;-49
2022/02/06 06:15:37;;;;;;;1.83;1.83;;;;;;;0.46;100.00;97019.97;4949530;28;20213;-50
2022/02/06 06:18:06;;;;;;;2.33;2.00;;;;;;;0.42;100.00;97024.63;4902761;28;20748;-48
2022/02/06 06:20:35;;;;;;;1.93;1.83;;;;;;;0.41;100.00;97014.28;4971093;28;20718;-50
2022/02/06 06:23:03;;;;;;;6.00;2.10;;;;;;;0.30;100.00;97022.97;4930999;28;20249;-49
2022/02/06 06:25:35;;;;;;;3.70;2.00;;;;;;;0.54;100.00;97038.41;4969229;28;20221;-52
2022/02/06 06:28:03;;;;;;;3.07;1.97;;;;;;;0.43;100.00;97041.91;4965550;28;20213;-48
2022/02/06 06:30:32;;;;;;;2.43;1.73;;;;;;;0.51;100.00;97041.28;4933905;28;20368;-47
2022/02/06 06:33:00;;;;;;;3.90;2.30;;;;;;;0.54;100.00;97056.66;4930181;28;20218;-50
2022/02/06 06:35:49;;;;;;;1.90;1.80;;;;;;;0.61;100.00;97040.53;4944405;28;20214;-50
2022/02/06 06:38:17;;;;;;;3.60;1.93;;;;;;;0.65;100.00;97040.16;4949854;28;20206;-50
2022/02/06 06:40:46;;;;;;;2.03;1.93;;;;;;;0.66;100.00;97012.31;4938414;28;20802;-48
2022/02/06 06:43:14;;;;;;;2.40;2.20;;;;;;;0.81;100.00;97039.72;4951952;28;20226;-49
2022/02/06 06:45:43;;;;;;;2.33;2.13;;;;;;;0.79;100.00;97012.94;4949773;28;20217;-49
2022/02/06 06:48:11;;;;;;;4.37;2.70;;;;;;;0.75;100.00;97024.59;4926835;28;20295;-47
2022/02/06 06:50:39;;;;;;;2.40;2.20;;;;;;;0.77;100.00;97014.84;4956252;28;20240;-50
2022/02/06 06:53:09;;;;;;;2.03;1.80;;;;;;;0.84;100.00;97017.78;4970652;28;20206;-50
2022/02/06 06:55:38;;;;;;;2.33;2.07;;;;;;;0.87;100.00;97017.53;4920914;28;20210;-51
2022/02/06 06:58:13;;;;;;;1.67;1.57;;;;;;;0.97;100.00;97020.22;4970173;28;20209;-51
2022/02/06 07:00:54;;;;;;;3.00;2.10;;;;;;;1.05;100.00;97014.34;4949737;28;21858;-52
2022/02/06 07:03:23;;;;;;;2.10;1.80;;;;;;;1.15;100.00;97012.63;4925168;28;20205;-49
2022/02/06 07:05:54;;;;;;;2.17;2.07;;;;;;;1.21;100.00;96991.22;4968683;28;20222;-54
2022/02/06 07:08:22;;;;;;;1.73;1.63;;;;;;;1.24;100.00;96983.16;4956294;28;20536;-47
2022/02/06 07:10:51;;;;;;;2.13;1.97;;;;;;;1.12;100.00;96985.00;4933140;28;20586;-53
2022/02/06 07:13:21;;;;;;;2.00;1.77;;;;;;;1.15;100.00;97003.00;4965666;28;20904;-51
2022/02/06 07:15:49;;;;;;;1.93;1.83;;;;;;;1.32;100.00;96995.53;4958663;28;20292;-48
2022/02/06 07:18:19;;;;;;;2.13;1.70;;;;;;;1.43;100.00;97003.28;4933616;28;20202;-47
2022/02/06 07:20:47;;;;;;;5.17;2.53;;;;;;;1.53;100.00;97002.50;4910388;28;20239;-52
2022/02/06 07:23:15;;;;;;;2.90;1.97;;;;;;;1.59;100.00;97015.03;4964947;28;20206;-49
2022/02/06 07:25:47;;;;;;;1.67;1.43;;;;;;;1.67;100.00;97012.56;4938337;28;20237;-47
2022/02/06 07:28:17;;;;;;;2.30;1.47;;;;;;;1.61;100.00;97007.88;4966306;28;20206;-48
2022/02/06 07:30:47;;;;;;;1.83;1.73;;;;;;;1.79;100.00;97000.25;4964459;28;20230;-49
2022/02/06 07:33:19;;;;;;;3.27;1.60;;;;;;;1.69;100.00;96984.53;4955285;28;21556;-47
2022/02/06 07:35:48;;;;;;;3.40;1.90;;;;;;;1.83;100.00;96990.38;4936036;28;20222;-51
2022/02/06 07:38:16;;;;;;;6.07;1.90;;;;;;;1.93;100.00;96982.56;4970775;28;21239;-47
2022/02/06 07:40:44;;;;;;;3.67;1.87;;;;;;;1.91;100.00;96977.44;4955098;28;20906;-51
2022/02/06 07:43:12;;;;;;;1.60;1.50;;;;;;;2.05;100.00;96973.63;4947312;28;20206;-52
2022/02/06 07:45:40;;;;;;;5.03;2.70;;;;;;;2.00;100.00;96986.28;4965980;28;20231;-50
2022/02/06 07:48:12;;;;;;;4.23;2.60;;;;;;;1.97;100.00;96989.16;4951082;28;20210;-51
2022/02/06 07:50:40;;;;;;;2.40;2.00;;;;;;;2.00;100.00;96976.63;4947161;28;20241;-48
2022/02/06 07:53:08;;;;;;;2.00;1.90;;;;;;;2.15;100.00;96964.00;4927383;28;20221;-47
2022/02/06 07:55:36;;;;;;;1.67;1.53;;;;;;;2.16;100.00;96968.25;4953945;28;20197;-52
2022/02/06 07:58:04;;;;;;;1.90;1.80;;;;;;;2.22;100.00;96960.84;4949000;28;20213;-50
2022/02/06 08:00:32;;;;;;;2.40;2.00;;;;;;;2.17;100.00;96962.06;4962380;28;20217;-51
2022/02/06 08:03:01;;;;;;;3.03;2.00;;;;;;;2.40;100.00;96943.50;4970336;28;20210;-49
2022/02/06 08:05:30;;;;;;;1.80;1.70;;;;;;;2.37;100.00;96942.97;4946881;28;20229;-50
2022/02/06 08:08:00;;;;;;;2.07;1.77;;;;;;;2.29;100.00;96935.81;4912788;28;20225;-52
2022/02/06 08:10:29;;;;;;;1.67;1.57;;;;;;;2.24;100.00;96920.53;4963347;28;20206;-50
2022/02/06 08:13:06;;;;;;;1.97;1.87;;;;;;;2.34;100.00;96911.84;4940923;28;20216;-51
2022/02/06 08:15:36;;;;;;;2.73;1.97;;;;;;;2.17;100.00;96914.22;4959907;28;20202;-49
2022/02/06 08:18:05;;;;;;;3.27;1.70;;;;;;;2.13;100.00;96924.09;4954353;28;20777;-49
2022/02/06 08:20:35;;;;;;;2.23;2.13;;;;;;;2.01;100.00;96920.78;4952294;28;20886;-54
2022/02/06 08:23:03;;;;;;;1.77;1.57;;;;;;;2.05;100.00;96920.50;4966317;28;20220;-51
2022/02/06 08:25:32;;;;;;;5.63;2.43;;;;;;;1.97;100.00;96911.56;4923640;28;21098;-47
2022/02/06 08:28:00;;;;;;;2.73;2.53;;;;;;;1.94;100.00;96918.88;4947055;28;20836;-48
2022/02/06 08:30:29;;;;;;;3.47;2.10;;;;;;;2.05;100.00;96910.06;4966842;28;20211;-52
2022/02/06 08:32:59;;;;;;;1.80;1.70;;;;;;;2.40;100.00;96913.91;4971287;28;20210;-48
2022/02/06 08:35:27;;;;;;;2.37;2.17;;;;;;;2.83;100.00;96898.69;4935351;28;20230;-48
2022/02/06 08:37:56;;;;;;;2.03;1.93;;;;;;;3.05;100.00;96897.53;4970437;28;20217;-50
2022/02/06 08:40:24;;;;;;;2.03;1.80;;;;;;;3.04;100.00;96885.41;4922435;28;20221;-51
2022/02/06 08:42:52;;;;;;;1.67;1.57;;;;;;;3.25;100.00;96874.69;4956974;28;20224;-48
2022/02/06 08:45:22;;;;;;;2.23;2.00;;;;;;;3.25;100.00;96861.63;4951324;28;20236;-49
2022/02/06 08:47:51;;;;;;;5.20;1.83;;;;;;;3.25;100.00;96863.44;4968570;28;20761;-51
2022/02/06 08:50:19;;;;;;;1.80;1.70;;;;;;;3.25;100.00;96864.22;4951769;28;20237;-47
2022/02/06 08:52:47;;;;;;;2.10;2.00;;;;;;;3.14;100.00;96860.00;4952044;28;20332;-52
2022/02/06 08:55:17;;;;;;;3.40;1.80;;;;;;;3.12;100.00;96861.13;4931116;28;20220;-50
2022/02/06 08:57:49;;;;;;;4.60;1.37;;;;;;;3.10;100.00;96863.88;4955401;28;21049;-51
2022/02/06 09:00:18;;;;;;;3.97;1.93;;;;;;;3.25;100.00;96869.47;4918353;28;21378;-51
2022/02/06 09:02:47;;;;;;;2.23;1.70;;;;;;;3.26;100.00;96867.69;4966507;28;20288;-48
2022/02/06 09:05:16;;;;;;;4.00;1.60;;;;;;;3.24;100.00;96856.53;4951734;28;20434;-49
2022/02/06 09:07:45;;;;;;;4.50;2.40;;;;;;;3.33;100.00;96868.75;4953205;28;20698;-49
2022/02/06 09:10:15;;;;;;;3.57;2.43;;;;;;;3.45;100.00;96859.72;4925022;28;20247;-52
2022/02/06 09:12:49;;;;;;;2.30;1.60;;;;;;;3.57;100.00;96862.13;4969495;28;20209;-48
2022/02/06 09:15:17;;;;;;;3.60;1.83;;;;;;;3.76;100.00;96861.16;4934318;28;20209;-52
2022/02/06 09:17:46;;;;;;;2.13;1.77;;;;;;;3.61;100.00;96850.41;4969209;28;20205;-48
2022/02/06 09:20:14;;;;;;;2.93;1.67;;;;;;;3.68;100.00;96853.22;4950247;28;20210;-45
2022/02/06 09:22:43;;;;;;;1.63;1.53;;;;;;;3.72;100.00;96852.78;4968179;28;20206;-48
2022/02/06 09:25:12;;;;;;;1.83;1.73;;;;;;;3.46;100.00;96837.78;4947838;28;20530;-46
2022/02/06 09:27:40;;;;;;;1.97;1.80;;;;;;;3.56;100.00;96848.22;4929225;28;20213;-50
2022/02/06 09:30:15;;;;;;;2.70;1.57;;;;;;;3.39;100.00;96844.59;4932959;28;20529;-46
2022/02/06 09:35:10;;;;;;;2.40;1.87;;;;;;;3.40;100.00;96822.66;4943981;28;20717;-50
2022/02/06 09:37:38;;;;;;;1.97;1.87;;;;;;;3.55;100.00;96814.28;4972260;28;20575;-47
2022/02/06 09:40:10;;;;;;;2.87;2.10;;;;;;;3.49;100.00;96820.97;4950556;28;20220;-49
2022/02/06 09:42:38;;;;;;;1.90;1.77;;;;;;;3.62;100.00;96825.84;4931955;28;20220;-49
2022/02/06 09:45:09;;;;;;;1.93;1.83;;;;;;;3.65;100.00;96817.69;4956502;28;20410;-48
2022/02/06 09:47:37;;;;;;;1.37;1.33;;;;;;;3.67;100.00;96815.75;4941639;28;20224;-49
2022/02/06 09:50:07;;;;;;;3.07;2.17;;;;;;;3.66;100.00;96814.09;4958509;28;20586;-46
2022/02/06 09:52:38;;;;;;;4.73;2.27;;;;;;;3.76;100.00;96811.38;4960853;28;20229;-50
2022/02/06 09:55:11;;;;;;;3.97;2.43;;;;;;;3.70;100.00;96796.25;4954404;28;20661;-47
2022/02/06 09:57:51;;;;;;;1.60;1.50;;;;;;;3.88;100.00;96798.88;4973608;28;20703;-50
2022/02/06 10:00:23;;;;;;;2.10;2.00;;;;;;;3.90;100.00;96807.41;4940248;28;20667;-49
2022/02/06 10:02:53;;;;;;;2.87;1.73;;;;;;;3.86;100.00;96801.66;4953987;28;20355;-49
2022/02/06 10:05:22;;;;;;;2.47;2.00;;;;;;;3.84;100.00;96800.97;4949047;28;20529;-47
2022/02/06 10:07:57;;;;;;;2.10;1.77;;;;;;;3.85;100.00;96789.53;4955887;28;20210;-47
2022/02/06 10:10:27;;;;;;;2.00;1.90;;;;;;;3.92;100.00;96781.84;4955302;28;20259;-48
2022/02/06 10:12:57;;;;;;;2.77;1.83;;;;;;;4.02;100.00;96776.53;4950605;28;20923;-47
2022/02/06 10:15:26;;;;;;;2.80;2.00;;;;;;;4.05;100.00;96770.97;4946858;28;22918;-49
2022/02/06 10:17:54;;;;;;;3.90;1.77;;;;;;;4.12;100.00;96758.91;4952242;28;20310;-47
2022/02/06 10:20:29;;;;;;;2.60;1.57;;;;;;;4.20;100.00;96751.13;4961075;28;20237;-51
2022/02/06 10:23:02;;;;;;;1.67;1.50;;;;;;;4.20;100.00;96742.41;4954377;28;20769;-49
2022/02/06 10:25:31;;;;;;;1.70;1.60;;;;;;;4.17;100.00;96733.06;4950525;28;20236;-49
2022/02/06 10:28:04;;;;;;;2.07;1.87;;;;;;;4.09;100.00;96716.44;4940744;28;20897;-46
2022/02/06 10:30:42;;;;;;;2.33;2.13;;;;;;;4.04;100.00;96714.28;4958911;28;20230;-50
2022/02/06 10:33:11;;;;;;;4.40;2.03;;;;;;;4.11;100.00;96722.38;4947160;28;20735;-46
2022/02/06 10:35:40;;;;;;;5.67;2.07;;;;;;;4.33;100.00;96713.16;4971078;28;20460;-46
2022/02/06 10:38:19;;;;;;;2.70;2.03;;;;;;;4.47;100.00;96712.53;4968661;28;20212;-47
2022/02/06 10:41:03;;;;;;;3.17;2.00;;;;;;;4.52;100.00;96687.63;4943256;28;20553;-49
2022/02/06 10:43:32;;;;;;;1.63;1.53;;;;;;;4.58;100.00;96694.91;4934164;28;20217;-47
2022/02/06 10:46:12;;;;;;;2.70;1.83;;;;;;;4.52;100.00;96685.84;4948877;28;20226;-48
2022/02/06 10:48:45;;;;;;;2.17;1.98;;;;;;;4.62;100.00;96683.09;4943959;28;21135;-47
2022/02/06 10:51:42;;;;;;;3.13;1.98;;;;;;;4.61;100.00;96676.22;4971215;28;20460;-45
2022/02/06 10:54:14;;;;;;;3.13;1.83;;;;;;;4.98;100.00;96667.13;4971526;28;20264;-46
2022/02/06 10:57:01;;;;;;;2.43;1.90;;;;;;;4.81;100.00;96654.94;4955321;28;20693;-46
2022/02/06 10:59:29;;;;;;;2.85;2.30;;;;;;;5.14;100.00;96658.47;4925363;28;20464;-45
2022/02/06 11:01:59;;;;;;;4.40;1.93;;;;;;;4.94;100.00;96636.94;4948050;28;20237;-49
2022/02/06 11:04:32;;;;;;;2.40;1.97;;;;;;;4.78;100.00;96648.22;4953294;28;20689;-47
2022/02/06 11:07:15;;;;;;;1.67;1.57;;;;;;;4.64;100.00;96636.53;4967549;28;20226;-52
2022/02/06 11:09:43;;;;;;;4.33;1.60;;;;;;;4.58;100.00;96631.94;4968261;28;20198;-51
2022/02/06 11:12:13;;;;;;;2.53;1.70;;;;;;;4.29;100.00;96623.44;4953603;28;20294;-47
2022/02/06 11:14:47;;;;;;;3.40;1.73;;;;;;;4.19;100.00;96622.75;4925793;28;20493;-49
2022/02/06 11:17:19;;;;;;;3.67;1.80;;;;;;;4.41;100.00;96610.88;4954961;28;21546;-46
2022/02/06 11:20:01;;;;;;;1.83;1.73;;;;;;;4.27;100.00;96604.44;4957949;28;20213;-49
2022/02/06 11:22:29;;;;;;;2.63;1.60;;;;;;;4.32;100.00;96604.78;4951745;28;20236;-51
2022/02/06 11:24:59;;;;;;;2.00;1.90;;;;;;;4.31;100.00;96587.41;4970312;28;20205;-51
2022/02/06 11:27:28;;;;;;;3.50;1.97;;;;;;;4.22;100.00;96588.34;4958569;28;20228;-49
2022/02/06 11:29:56;;;;;;;2.30;1.77;;;;;;;4.16;100.00;96592.41;4932912;28;20218;-52
2022/02/06 11:32:27;;;;;;;1.70;1.60;;;;;;;4.19;100.00;96578.19;4949313;28;20649;-52
2022/02/06 11:34:57;;;;;;;1.90;1.43;;;;;;;4.21;100.00;96568.34;4967726;28;20320;-47
2022/02/06 11:43:49;;;;;;;2.00;1.70;;;;;;;4.30;100.00;96550.84;4952970;28;20251;-51
2022/02/06 11:46:23;;;;;;;1.47;1.37;;;;;;;4.33;100.00;96540.84;4930989;28;20317;-50
2022/02/06 11:48:56;;;;;;;2.40;2.10;;;;;;;4.30;100.00;96546.41;4931455;28;20209;-51
2022/02/06 11:51:25;;;;;;;2.20;1.77;;;;;;;4.34;100.00;96532.00;4955815;28;20644;-48
2022/02/06 11:53:53;;;;;;;4.53;1.67;;;;;;;4.30;100.00;96543.78;4935596;28;20210;-48
2022/02/06 11:56:23;;;;;;;4.80;1.50;;;;;;;4.44;100.00;96541.53;4967765;28;20198;-51
2022/02/06 11:58:52;;;;;;;2.30;1.30;;;;;;;4.54;100.00;96533.50;4952576;28;20205;-51
2022/02/06 12:01:22;;;;;;;1.10;1.10;;;;;;;4.43;100.00;96519.72;4931384;28;20743;-47
2022/02/06 12:04:00;;;;;;;1.77;1.33;;;;;;;4.46;100.00;96508.91;4952615;28;20206;-46
2022/02/06 12:06:30;;;;;;;3.33;1.57;;;;;;;4.19;100.00;96496.91;4955233;28;20229;-51
2022/02/06 12:09:28;;;;;;;5.00;1.67;;;;;;;4.24;100.00;96502.47;4931961;28;20210;-49
2022/02/06 12:12:24;;;;;;;3.20;1.80;;;;;;;4.12;100.00;96490.66;4962555;28;20684;-47
2022/02/06 12:15:20;;;;;;;4.03;1.87;;;;;;;4.24;100.00;96480.69;4953831;28;20307;-45
2022/02/06 12:18:13;;;;;;;2.70;2.20;;;;;;;4.24;100.00;96462.34;4928378;28;20229;-49
2022/02/06 12:20:47;;;;;;;1.60;1.50;;;;;;;4.12;100.00;96452.13;4947303;28;20757;-46
2022/02/06 12:23:47;;;;;;;4.30;2.07;;;;;;;4.14;100.00;96452.00;4950103;28;20489;-49
2022/02/06 12:26:41;;;;;;;1.87;1.77;;;;;;;4.12;100.00;96446.09;4908697;28;20235;-48
2022/02/06 12:29:11;;;;;;;2.27;2.10;;;;;;;4.19;100.00;96444.44;4924747;28;20783;-50
2022/02/06 12:31:53;;;;;;;3.07;1.43;;;;;;;4.24;100.00;96433.50;4902929;28;20356;-46
2022/02/06 12:37:34;;;;;;;2.50;1.97;;;;;;;4.32;100.00;96425.63;4894568;28;20746;-51
2022/02/06 12:40:06;;;;;;;2.50;1.80;;;;;;;4.23;100.00;96430.03;4891514;28;21121;-47
2022/02/06 12:42:37;;;;;;;1.60;1.50;;;;;;;4.32;100.00;96417.75;4923302;28;20250;-48
2022/02/06 12:45:09;;;;;;;2.07;1.97;;;;;;;4.28;100.00;96408.56;4907931;28;20548;-51
2022/02/06 12:47:42;;;;;;;2.10;1.97;;;;;;;4.30;100.00;96399.53;4906764;28;20238;-47
2022/02/06 12:50:17;;;;;;;1.93;1.83;;;;;;;4.37;100.00;96398.91;4886585;28;20219;-49
2022/02/06 12:52:47;;;;;;;1.67;1.57;;;;;;;4.24;100.00;96368.75;4889140;28;20213;-46
2022/02/06 12:55:22;;;;;;;1.57;1.47;;;;;;;4.32;100.00;96376.59;4911912;28;20225;-50
2022/02/06 12:57:52;;;;;;;1.37;1.27;;;;;;;4.39;100.00;96383.84;4918456;28;20210;-53
2022/02/06 13:00:37;;;;;;;2.67;1.90;;;;;;;4.39;100.00;96362.84;4924493;28;20221;-50
2022/02/06 13:03:35;;;;;;;4.67;2.57;;;;;;;4.47;100.00;96357.59;4954036;28;20690;-50
2022/02/06 13:06:07;;;;;;;1.17;1.17;;;;;;;4.58;100.00;96359.88;4906336;28;20226;-48
2022/02/06 13:08:40;;;;;;;2.30;1.53;;;;;;;4.54;100.00;96342.81;4917331;28;20620;-52
2022/02/06 13:11:13;;;;;;;1.13;1.13;;;;;;;4.56;100.00;96330.34;4934089;28;20226;-51
2022/02/06 13:13:54;;;;;;;1.90;1.60;;;;;;;4.57;100.00;96328.56;4932583;28;20590;-51